Time;durP1;ratioP1;P1;durP2;ratioP2;P2;SDS_P1;SDS_P2;PMS_P1;PMS_P2;Temp;Humidity;BMP_temperature;BMP_pressure;BME280_temperature;BME280_humidity;BME280_pressure;Samples;Min_cycle;Max_cycle;Signal;HPM_P1;HPM_P2
2021/03/03 00:01:16;;;;;;;26.17;15.50;;;1.60;99.90;;;;;;4935347;29;20051;-80
2021/03/03 00:03:48;;;;;;;25.38;16.13;;;1.50;99.90;;;;;;4934521;29;20070;-80
2021/03/03 00:06:19;;;;;;;27.88;14.77;;;1.40;99.90;;;;;;4931308;29;20054;-80
2021/03/03 00:08:46;;;;;;;28.38;15.57;;;1.40;99.90;;;;;;4920630;29;20150;-81
2021/03/03 00:11:13;;;;;;;26.40;16.10;;;1.40;99.90;;;;;;4929776;29;20047;-80
2021/03/03 00:13:40;;;;;;;25.77;14.98;;;1.40;99.90;;;;;;4919440;29;20043;-80
2021/03/03 00:16:11;;;;;;;30.35;17.23;;;1.40;99.90;;;;;;4914453;29;20499;-81
2021/03/03 00:18:43;;;;;;;27.98;16.95;;;1.40;99.90;;;;;;4920114;29;20071;-80
2021/03/03 00:21:10;;;;;;;29.35;17.02;;;1.30;99.90;;;;;;4914018;29;20044;-81
2021/03/03 00:23:36;;;;;;;28.98;15.70;;;1.40;99.90;;;;;;4935706;29;20056;-80
2021/03/03 00:26:08;;;;;;;28.10;16.35;;;1.40;99.90;;;;;;4929357;29;20123;-81
2021/03/03 00:28:35;;;;;;;26.08;16.13;;;1.40;99.90;;;;;;4919379;29;20047;-80
2021/03/03 00:31:01;;;;;;;28.23;15.60;;;1.30;99.90;;;;;;4928426;29;20151;-80
2021/03/03 00:33:28;;;;;;;22.60;14.68;;;1.30;99.90;;;;;;4919569;29;20039;-81
2021/03/03 00:35:55;;;;;;;21.73;13.93;;;1.30;99.90;;;;;;4911694;29;20062;-81
2021/03/03 00:38:21;;;;;;;27.92;15.90;;;1.30;99.90;;;;;;4919142;29;20047;-80
2021/03/03 00:40:48;;;;;;;31.33;16.13;;;1.30;99.90;;;;;;4919249;29;20427;-81
2021/03/03 00:43:20;;;;;;;25.15;15.25;;;1.30;99.90;;;;;;4915707;29;20481;-81
2021/03/03 00:45:47;;;;;;;28.38;16.15;;;1.30;99.90;;;;;;4919352;29;20046;-81
2021/03/03 00:48:13;;;;;;;24.70;15.05;;;1.20;99.90;;;;;;4929781;29;20047;-81
2021/03/03 00:50:45;;;;;;;28.50;15.70;;;1.20;99.90;;;;;;4919781;29;20062;-81
2021/03/03 00:53:14;;;;;;;25.38;15.80;;;1.20;99.90;;;;;;4929537;29;20566;-81
2021/03/03 00:55:50;;;;;;;27.05;15.10;;;1.20;99.90;;;;;;4920241;29;20051;-81
2021/03/03 00:58:26;;;;;;;28.08;15.40;;;1.10;99.90;;;;;;4931263;29;20138;-80
2021/03/03 01:01:00;;;;;;;29.50;15.25;;;1.10;99.90;;;;;;4920218;29;20039;-81
2021/03/03 01:03:35;;;;;;;28.92;15.68;;;1.10;99.90;;;;;;4920080;29;20083;-81
2021/03/03 01:06:14;;;;;;;25.48;14.77;;;1.10;99.90;;;;;;4915454;29;20142;-81
2021/03/03 01:08:42;;;;;;;23.73;14.70;;;1.10;99.90;;;;;;4919168;29;20048;-81
2021/03/03 01:11:10;;;;;;;27.15;15.10;;;1.00;99.90;;;;;;4929318;29;20412;-81
2021/03/03 01:13:40;;;;;;;22.10;14.60;;;1.00;99.90;;;;;;4919530;29;20048;-80
2021/03/03 01:16:17;;;;;;;25.30;13.80;;;1.00;99.90;;;;;;4915919;29;20051;-81
2021/03/03 01:18:48;;;;;;;25.73;14.52;;;1.00;99.90;;;;;;4919561;29;20048;-81
2021/03/03 01:21:19;;;;;;;28.10;15.88;;;1.00;99.90;;;;;;4915487;29;20052;-81
2021/03/03 01:23:46;;;;;;;24.77;14.88;;;0.90;99.90;;;;;;4919109;29;20059;-81
2021/03/03 01:26:13;;;;;;;27.67;14.85;;;0.90;99.90;;;;;;4918909;29;20455;-81
2021/03/03 01:28:44;;;;;;;24.75;15.07;;;0.90;99.90;;;;;;4918670;29;20050;-81
2021/03/03 01:31:11;;;;;;;24.27;14.23;;;0.90;99.90;;;;;;4929003;29;20154;-81
2021/03/03 01:33:43;;;;;;;26.00;14.98;;;0.80;99.90;;;;;;4919729;29;20071;-80
2021/03/03 01:36:09;;;;;;;23.88;14.77;;;0.80;99.90;;;;;;4929192;29;20095;-81
2021/03/03 01:38:36;;;;;;;24.98;14.88;;;0.70;99.90;;;;;;4918951;29;20086;-80
2021/03/03 01:41:03;;;;;;;23.30;14.23;;;0.70;99.90;;;;;;4927770;29;20051;-81
2021/03/03 01:43:35;;;;;;;25.10;14.88;;;0.70;99.90;;;;;;4919229;29;20115;-80
2021/03/03 01:46:01;;;;;;;24.92;13.82;;;0.70;99.90;;;;;;4913249;29;20052;-81
2021/03/03 01:48:33;;;;;;;26.45;14.05;;;0.70;99.90;;;;;;4923055;29;20048;-81
2021/03/03 01:51:05;;;;;;;24.80;14.88;;;0.70;99.90;;;;;;4932885;29;20047;-81
2021/03/03 01:53:37;;;;;;;27.70;15.27;;;0.70;99.90;;;;;;4923973;29;20044;-81
2021/03/03 01:56:04;;;;;;;27.00;14.35;;;0.70;99.90;;;;;;4933283;29;20054;-81
2021/03/03 01:58:30;;;;;;;24.73;14.60;;;0.60;99.90;;;;;;4924692;29;20507;-81
2021/03/03 02:00:57;;;;;;;24.13;14.63;;;0.60;99.90;;;;;;4917676;29;20079;-81
2021/03/03 02:03:24;;;;;;;25.35;15.05;;;0.60;99.90;;;;;;4925786;29;20143;-81
2021/03/03 02:05:57;;;;;;;24.70;15.57;;;0.60;99.90;;;;;;4942043;29;20094;-81
2021/03/03 02:08:39;;;;;;;22.70;13.43;;;0.60;99.90;;;;;;4925788;29;20043;-81
2021/03/03 02:11:35;;;;;;;26.45;15.07;;;0.60;99.90;;;;;;4935580;29;20054;-81
2021/03/03 02:14:05;;;;;;;23.75;13.88;;;0.60;99.90;;;;;;4925531;29;20419;-81
2021/03/03 02:16:34;;;;;;;27.48;14.68;;;0.50;99.90;;;;;;4930231;29;20446;-81
2021/03/03 02:19:01;;;;;;;26.27;15.45;;;0.50;99.90;;;;;;4929523;29;20051;-81
2021/03/03 02:21:39;;;;;;;25.92;14.65;;;0.50;99.90;;;;;;4926730;29;20051;-81
2021/03/03 02:24:27;;;;;;;25.25;15.25;;;0.50;99.90;;;;;;4926602;29;20052;-81
2021/03/03 02:26:56;;;;;;;25.48;14.27;;;0.50;99.90;;;;;;4917973;29;20518;-81
2021/03/03 02:29:29;;;;;;;24.85;14.23;;;0.50;99.90;;;;;;4926022;29;20047;-80
2021/03/03 02:31:57;;;;;;;25.63;14.70;;;0.40;99.90;;;;;;4926897;29;20052;-81
2021/03/03 02:34:27;;;;;;;25.27;14.40;;;0.40;99.90;;;;;;4926166;29;20407;-81
2021/03/03 02:36:59;;;;;;;27.75;14.07;;;0.40;99.90;;;;;;4927314;29;20114;-81
2021/03/03 02:39:28;;;;;;;27.00;13.85;;;0.40;99.90;;;;;;4926025;29;20052;-81
2021/03/03 02:41:56;;;;;;;23.20;13.93;;;0.40;99.90;;;;;;4926199;29;20052;-81
2021/03/03 02:44:24;;;;;;;27.50;14.27;;;0.40;99.90;;;;;;4925557;29;20090;-81
2021/03/03 02:46:50;;;;;;;24.65;14.23;;;0.30;99.90;;;;;;4942011;29;20047;-81
2021/03/03 02:49:20;;;;;;;26.63;14.30;;;0.40;99.90;;;;;;4920683;29;20044;-81
2021/03/03 02:51:46;;;;;;;26.23;14.55;;;0.30;99.90;;;;;;4925847;29;20056;-80
2021/03/03 02:54:15;;;;;;;23.60;13.65;;;0.30;99.90;;;;;;4935849;29;20054;-81
2021/03/03 02:56:42;;;;;;;21.95;14.13;;;0.30;99.90;;;;;;4941803;29;20062;-80
2021/03/03 02:59:32;;;;;;;21.83;13.63;;;0.30;99.90;;;;;;4924387;29;20047;-80
2021/03/03 03:01:59;;;;;;;23.77;14.75;;;0.20;99.90;;;;;;4924539;29;20064;-80
2021/03/03 03:04:28;;;;;;;28.83;16.50;;;0.30;99.90;;;;;;4924333;29;20056;-81
2021/03/03 03:06:57;;;;;;;25.67;13.70;;;0.20;99.90;;;;;;4924735;29;20570;-81
2021/03/03 03:09:25;;;;;;;23.15;13.13;;;0.20;99.90;;;;;;4924373;29;20138;-80
2021/03/03 03:11:53;;;;;;;21.25;13.15;;;0.20;99.90;;;;;;4924514;29;20051;-80
2021/03/03 03:14:26;;;;;;;24.15;12.40;;;0.10;99.90;;;;;;4924486;29;20142;-81
2021/03/03 03:16:56;;;;;;;23.48;13.18;;;0.10;99.90;;;;;;4924295;29;20147;-81
2021/03/03 03:19:31;;;;;;;21.75;12.70;;;0.10;99.90;;;;;;4924157;29;20059;-81
2021/03/03 03:21:59;;;;;;;21.45;12.73;;;0.00;99.90;;;;;;4924445;29;20048;-81
2021/03/03 03:24:25;;;;;;;20.83;13.10;;;0.00;99.90;;;;;;4924439;29;20048;-81
2021/03/03 03:26:53;;;;;;;20.45;12.90;;;0.00;99.90;;;;;;4939763;29;20047;-80
2021/03/03 03:29:20;;;;;;;24.60;13.00;;;0.00;99.90;;;;;;4919983;29;20048;-80
2021/03/03 03:31:47;;;;;;;20.17;12.88;;;0.00;99.90;;;;;;4923933;29;20047;-80
2021/03/03 03:34:14;;;;;;;22.50;13.07;;;0.00;99.90;;;;;;4933443;29;20056;-80
2021/03/03 03:36:40;;;;;;;21.15;13.55;;;0.00;99.90;;;;;;4923713;29;20489;-80
2021/03/03 03:39:27;;;;;;;22.33;14.80;;;0.00;99.90;;;;;;4936073;29;20430;-80
2021/03/03 03:41:53;;;;;;;29.50;16.73;;;0.10;99.90;;;;;;4922863;29;20475;-81
2021/03/03 03:44:20;;;;;;;28.35;15.90;;;0.00;99.90;;;;;;4938255;29;20052;-81
2021/03/03 03:46:47;;;;;;;23.13;13.35;;;0.10;99.90;;;;;;4922462;29;20520;-80
2021/03/03 03:49:19;;;;;;;22.63;14.00;;;0.10;99.90;;;;;;4922201;29;20052;-81
2021/03/03 03:51:46;;;;;;;20.08;12.70;;;0.10;99.90;;;;;;4920736;29;20052;-80
2021/03/03 03:54:12;;;;;;;25.48;14.50;;;0.10;99.90;;;;;;4916807;29;20047;-80
2021/03/03 03:56:43;;;;;;;23.25;13.63;;;0.10;99.90;;;;;;4938244;29;20039;-80
2021/03/03 03:59:09;;;;;;;24.60;13.13;;;0.00;99.90;;;;;;4922155;29;20055;-81
2021/03/03 04:01:36;;;;;;;22.30;12.85;;;0.10;99.90;;;;;;4936055;29;20058;-81
2021/03/03 04:04:03;;;;;;;24.40;13.75;;;0.10;99.90;;;;;;4931692;29;20392;-81
2021/03/03 04:06:34;;;;;;;21.90;13.27;;;0.10;99.90;;;;;;4938264;29;20067;-80
2021/03/03 04:09:05;;;;;;;22.60;12.88;;;0.10;99.90;;;;;;4922389;29;20047;-81
2021/03/03 04:11:32;;;;;;;20.50;12.55;;;0.10;99.90;;;;;;4936174;29;20046;-80
2021/03/03 04:13:58;;;;;;;24.70;12.77;;;0.10;99.90;;;;;;5032219;23;20093;-78
2021/03/03 04:16:29;;;;;;;24.65;12.93;;;0.10;99.90;;;;;;4908039;29;20048;-78
2021/03/03 04:18:56;;;;;;;20.40;12.40;;;0.10;99.90;;;;;;4897623;29;20253;-78
2021/03/03 04:21:27;;;;;;;26.52;14.27;;;0.10;99.90;;;;;;4897645;29;20048;-78
2021/03/03 04:23:58;;;;;;;28.55;16.25;;;0.10;99.90;;;;;;4898462;29;20047;-77
2021/03/03 04:26:24;;;;;;;27.75;16.35;;;0.10;99.90;;;;;;4897308;29;20059;-77
2021/03/03 04:28:56;;;;;;;26.00;13.98;;;0.00;99.90;;;;;;4896638;29;20051;-78
2021/03/03 04:31:27;;;;;;;25.00;15.80;;;0.00;99.90;;;;;;4897209;29;20044;-77
2021/03/03 04:33:58;;;;;;;28.58;15.25;;;-0.10;99.90;;;;;;4913099;29;20068;-77
2021/03/03 04:36:29;;;;;;;24.55;13.98;;;-0.10;99.90;;;;;;4897667;29;20048;-77
2021/03/03 04:39:01;;;;;;;25.50;15.23;;;-0.10;99.90;;;;;;4896896;29;20044;-77
2021/03/03 04:41:32;;;;;;;22.85;14.25;;;0.30;99.90;;;;;;4913330;29;20050;-77
2021/03/03 04:44:03;;;;;;;22.17;13.32;;;0.40;99.90;;;;;;4913424;29;20154;-78
2021/03/03 04:46:35;;;;;;;28.17;15.25;;;0.40;99.90;;;;;;4882988;29;20040;-78
2021/03/03 04:49:06;;;;;;;26.67;15.48;;;0.50;99.90;;;;;;4907164;29;20047;-78
2021/03/03 04:51:35;;;;;;;28.13;15.07;;;0.40;99.90;;;;;;4916894;29;20035;-78
2021/03/03 04:54:06;;;;;;;27.27;14.48;;;0.30;99.90;;;;;;4932354;29;20054;-78
2021/03/03 04:56:38;;;;;;;25.38;13.77;;;0.30;99.90;;;;;;4932397;29;20051;-78
2021/03/03 04:59:09;;;;;;;21.23;13.30;;;0.30;99.90;;;;;;4916319;29;20044;-77
2021/03/03 05:01:40;;;;;;;22.65;14.48;;;0.20;99.90;;;;;;4916512;29;20060;-77
2021/03/03 05:04:11;;;;;;;25.95;16.73;;;0.20;99.90;;;;;;4916426;29;20052;-78
2021/03/03 05:06:43;;;;;;;25.55;15.90;;;0.20;99.90;;;;;;4916358;29;20507;-78
2021/03/03 05:09:14;;;;;;;24.83;14.63;;;0.10;99.90;;;;;;4916217;29;20054;-78
2021/03/03 05:11:45;;;;;;;24.77;15.27;;;0.10;99.90;;;;;;4916904;29;20411;-78
2021/03/03 05:14:17;;;;;;;25.85;14.27;;;0.10;99.90;;;;;;4916290;29;20039;-78
2021/03/03 05:16:48;;;;;;;25.10;16.75;;;0.10;99.90;;;;;;4916649;29;20044;-77
2021/03/03 05:19:19;;;;;;;29.75;16.23;;;0.10;99.90;;;;;;4916172;29;20305;-78
2021/03/03 05:21:45;;;;;;;23.75;15.40;;;0.00;99.90;;;;;;4931607;29;20054;-78
2021/03/03 05:24:17;;;;;;;27.45;14.90;;;0.10;99.90;;;;;;4916378;29;20066;-78
2021/03/03 05:26:48;;;;;;;24.95;13.98;;;0.10;99.90;;;;;;4916475;29;20050;-78
2021/03/03 05:29:19;;;;;;;22.85;13.52;;;0.00;99.90;;;;;;4915643;29;20047;-78
2021/03/03 05:31:50;;;;;;;22.90;13.50;;;0.00;99.90;;;;;;4931947;29;20047;-77
2021/03/03 05:34:22;;;;;;;27.40;14.55;;;0.00;99.90;;;;;;4915905;29;20046;-77
2021/03/03 05:36:53;;;;;;;27.92;14.63;;;0.00;99.90;;;;;;4916206;29;20043;-78
2021/03/03 05:39:19;;;;;;;22.17;13.55;;;0.00;99.90;;;;;;4915507;29;20503;-77
2021/03/03 05:41:51;;;;;;;24.40;13.55;;;0.00;99.90;;;;;;4916203;29;20503;-77
2021/03/03 05:44:22;;;;;;;25.65;14.13;;;-0.10;99.90;;;;;;4916551;29;20052;-78
2021/03/03 05:46:55;;;;;;;21.40;13.55;;;0.00;99.90;;;;;;4915393;29;20044;-77
2021/03/03 05:49:27;;;;;;;20.08;11.65;;;0.00;99.90;;;;;;4904323;29;20040;-78
2021/03/03 05:51:59;;;;;;;23.05;13.82;;;0.00;99.90;;;;;;4897501;29;20054;-77
2021/03/03 05:54:31;;;;;;;24.83;14.40;;;-0.10;99.90;;;;;;4897287;29;20392;-77
2021/03/03 05:57:03;;;;;;;21.00;13.13;;;-0.10;99.90;;;;;;4897062;29;20044;-77
2021/03/03 05:59:36;;;;;;;23.00;12.95;;;0.00;99.90;;;;;;4881902;29;20059;-78
2021/03/03 06:02:08;;;;;;;21.03;12.33;;;0.00;99.90;;;;;;4896603;29;20067;-77
2021/03/03 06:04:40;;;;;;;20.55;12.00;;;0.00;99.90;;;;;;4896329;29;20715;-77
2021/03/03 06:07:12;;;;;;;23.90;13.65;;;0.00;99.90;;;;;;4881470;29;20044;-77
2021/03/03 06:09:38;;;;;;;18.90;11.75;;;0.00;99.90;;;;;;4895619;29;20052;-78
2021/03/03 06:12:11;;;;;;;22.08;13.02;;;0.00;99.90;;;;;;4895599;29;20036;-78
2021/03/03 06:14:42;;;;;;;21.13;12.55;;;0.00;99.90;;;;;;4881591;29;20044;-78
2021/03/03 06:17:14;;;;;;;21.10;12.30;;;0.10;99.90;;;;;;4882430;29;20048;-78
2021/03/03 06:19:41;;;;;;;21.08;11.43;;;0.10;99.90;;;;;;4880823;29;20056;-78
2021/03/03 06:22:27;;;;;;;19.17;11.40;;;0.50;99.90;;;;;;4900434;29;20054;-78
2021/03/03 06:24:58;;;;;;;18.75;11.00;;;0.60;99.90;;;;;;4899730;29;20044;-78
2021/03/03 06:27:39;;;;;;;18.88;10.57;;;0.60;99.90;;;;;;4914838;29;20528;-78
2021/03/03 06:30:15;;;;;;;23.92;11.02;;;0.50;99.90;;;;;;4912763;29;20054;-78
2021/03/03 06:33:01;;;;;;;20.02;11.93;;;0.50;99.90;;;;;;4930033;29;20040;-78
2021/03/03 06:35:44;;;;;;;21.42;11.88;;;0.40;99.90;;;;;;4906050;29;20036;-78
2021/03/03 06:38:16;;;;;;;17.98;11.30;;;0.40;99.90;;;;;;4900862;29;20530;-78
2021/03/03 06:40:55;;;;;;;19.30;12.80;;;0.40;99.90;;;;;;4885495;29;20052;-78
2021/03/03 06:43:31;;;;;;;23.20;12.55;;;0.30;99.90;;;;;;4900326;29;20068;-78
2021/03/03 06:46:16;;;;;;;27.13;13.70;;;0.30;99.90;;;;;;4885630;29;20050;-78
2021/03/03 06:48:47;;;;;;;22.98;13.15;;;0.30;99.90;;;;;;4891566;29;20044;-78
2021/03/03 06:51:32;;;;;;;23.52;13.50;;;0.30;99.90;;;;;;4934815;29;20545;-78
2021/03/03 06:54:00;;;;;;;23.90;13.30;;;0.40;99.90;;;;;;4936388;29;20047;-78
2021/03/03 06:56:42;;;;;;;20.50;12.00;;;0.40;99.90;;;;;;4919455;29;20043;-78
2021/03/03 06:59:30;;;;;;;23.42;12.05;;;0.40;99.90;;;;;;4919160;29;20052;-78
2021/03/03 07:02:15;;;;;;;20.38;11.10;;;0.40;99.90;;;;;;4919667;29;20050;-78
2021/03/03 07:04:55;;;;;;;19.23;11.20;;;0.50;99.90;;;;;;4904277;29;20047;-78
2021/03/03 07:07:26;;;;;;;19.48;10.73;;;0.50;99.90;;;;;;4903725;29;20099;-78
2021/03/03 07:09:59;;;;;;;21.85;13.18;;;0.60;99.90;;;;;;4919395;29;20048;-78
2021/03/03 07:12:32;;;;;;;28.48;16.80;;;0.60;99.90;;;;;;4933666;29;20048;-78
2021/03/03 07:15:09;;;;;;;27.70;17.15;;;0.70;99.90;;;;;;4919178;29;20040;-78
2021/03/03 07:17:36;;;;;;;25.92;15.88;;;0.70;99.90;;;;;;4902640;29;20047;-78
2021/03/03 07:20:16;;;;;;;25.50;16.55;;;0.70;99.90;;;;;;4918343;29;20534;-78
2021/03/03 07:22:47;;;;;;;26.35;15.73;;;0.70;99.90;;;;;;4917650;29;20146;-77
2021/03/03 07:25:20;;;;;;;29.52;16.98;;;0.80;99.90;;;;;;4901275;29;20048;-78
2021/03/03 07:27:51;;;;;;;30.80;16.33;;;0.80;99.90;;;;;;4899296;29;20051;-78
2021/03/03 07:30:20;;;;;;;32.22;16.73;;;0.90;99.90;;;;;;4899314;29;20359;-78
2021/03/03 07:32:52;;;;;;;28.38;16.15;;;1.00;99.90;;;;;;4898719;29;20052;-78
2021/03/03 07:35:23;;;;;;;27.42;18.05;;;1.00;99.90;;;;;;4899244;29;20052;-78
2021/03/03 07:37:56;;;;;;;31.27;18.08;;;1.10;99.90;;;;;;4899619;29;20048;-77
2021/03/03 07:40:28;;;;;;;30.20;15.73;;;1.10;99.90;;;;;;4899807;29;20044;-78
2021/03/03 07:43:01;;;;;;;39.70;19.27;;;1.60;99.90;;;;;;4882450;29;20396;-78
2021/03/03 07:45:41;;;;;;;43.08;21.40;;;1.70;99.90;;;;;;4881807;29;20435;-78
2021/03/03 07:48:11;;;;;;;34.60;19.58;;;1.60;99.90;;;;;;4880236;29;20048;-78
2021/03/03 07:50:43;;;;;;;34.33;18.33;;;1.60;99.90;;;;;;4898268;29;20058;-78
2021/03/03 07:53:14;;;;;;;32.90;18.40;;;1.50;99.90;;;;;;4898389;29;20051;-78
2021/03/03 07:55:46;;;;;;;28.13;16.83;;;1.50;99.90;;;;;;4898129;29;20066;-78
2021/03/03 07:58:13;;;;;;;34.78;20.02;;;1.50;99.90;;;;;;4882375;29;20064;-77
2021/03/03 08:00:44;;;;;;;49.08;20.83;;;1.50;99.90;;;;;;4898181;29;20074;-78
2021/03/03 08:03:48;;;;;;;45.85;24.05;;;1.60;99.90;;;;;;4899302;29;20044;-78
2021/03/03 08:06:37;;;;;;;48.13;24.20;;;1.60;99.90;;;;;;4883614;29;20068;-78
2021/03/03 08:09:10;;;;;;;54.97;30.75;;;1.70;99.90;;;;;;4883786;29;20543;-78
2021/03/03 08:11:41;;;;;;;40.30;20.40;;;1.70;99.90;;;;;;4898186;29;20044;-78
2021/03/03 08:14:37;;;;;;;30.52;19.55;;;1.70;99.90;;;;;;4897905;29;20070;-78
2021/03/03 08:17:10;;;;;;;46.25;22.20;;;1.80;99.90;;;;;;4885242;29;20052;-78
2021/03/03 08:19:58;;;;;;;38.25;22.88;;;1.80;99.90;;;;;;4882580;29;20055;-78
2021/03/03 08:22:50;;;;;;;32.35;19.40;;;1.80;99.90;;;;;;4882499;29;20431;-78
2021/03/03 08:25:40;;;;;;;32.65;18.13;;;1.80;99.90;;;;;;4897657;29;20056;-78
2021/03/03 08:28:41;;;;;;;28.85;16.73;;;1.80;99.90;;;;;;4882384;29;20044;-78
2021/03/03 08:31:16;;;;;;;27.35;16.65;;;1.80;99.90;;;;;;4913713;29;20052;-78
2021/03/03 08:33:51;;;;;;;42.58;21.95;;;1.90;99.90;;;;;;4898868;29;20054;-78
2021/03/03 08:36:24;;;;;;;36.83;23.55;;;1.90;99.90;;;;;;4897931;29;20392;-78
2021/03/03 08:38:55;;;;;;;30.17;20.67;;;2.00;99.90;;;;;;4882432;29;20534;-78
2021/03/03 08:41:29;;;;;;;33.05;19.15;;;2.10;99.90;;;;;;4882744;29;20519;-77
2021/03/03 08:44:11;;;;;;;37.72;22.38;;;2.20;99.90;;;;;;4882907;29;20496;-77
2021/03/03 08:46:41;;;;;;;39.78;22.65;;;2.30;99.90;;;;;;4897550;29;20493;-77
2021/03/03 08:49:12;;;;;;;36.90;20.58;;;2.50;99.90;;;;;;4882395;29;20040;-78
2021/03/03 08:51:43;;;;;;;35.90;20.65;;;2.60;99.90;;;;;;4897814;29;20044;-78
2021/03/03 08:54:36;;;;;;;39.65;21.00;;;2.70;99.90;;;;;;4882883;29;20601;-78
2021/03/03 08:57:02;;;;;;;33.95;19.42;;;2.80;99.90;;;;;;4881278;29;20078;-78
2021/03/03 08:59:36;;;;;;;30.95;19.35;;;3.00;99.90;;;;;;4914288;29;20408;-77
2021/03/03 09:02:18;;;;;;;29.63;18.70;;;3.20;99.90;;;;;;4882494;29;20060;-78
2021/03/03 09:04:46;;;;;;;28.83;18.13;;;3.30;99.90;;;;;;4897085;29;20442;-77
2021/03/03 09:07:21;;;;;;;23.80;14.18;;;3.40;99.90;;;;;;4882585;29;20040;-77
2021/03/03 09:09:59;;;;;;;28.88;14.77;;;3.50;99.90;;;;;;4895737;29;20452;-77
2021/03/03 09:12:32;;;;;;;28.83;16.48;;;3.50;99.90;;;;;;4898985;29;20063;-77
2021/03/03 09:15:01;;;;;;;30.08;15.82;;;3.60;99.90;;;;;;4897379;29;20052;-78
2021/03/03 09:17:35;;;;;;;24.35;15.63;;;3.70;99.90;;;;;;4911395;29;20072;-78
2021/03/03 09:20:12;;;;;;;28.33;15.32;;;3.90;99.90;;;;;;4897735;29;20534;-77
2021/03/03 09:22:45;;;;;;;24.13;14.98;;;3.90;99.90;;;;;;4882446;29;20405;-77
2021/03/03 09:25:22;;;;;;;28.90;15.55;;;4.00;99.90;;;;;;4882588;29;20415;-77
2021/03/03 09:27:58;;;;;;;25.95;15.20;;;4.10;99.90;;;;;;4896765;29;20044;-77
2021/03/03 09:30:38;;;;;;;23.67;14.10;;;4.20;99.90;;;;;;4882435;29;20044;-77
2021/03/03 09:33:10;;;;;;;26.38;15.32;;;4.30;99.90;;;;;;4896899;29;20040;-77
2021/03/03 09:35:41;;;;;;;28.17;16.92;;;4.40;99.90;;;;;;4913720;29;20076;-77
2021/03/03 09:38:11;;;;;;;24.13;14.23;;;4.50;99.90;;;;;;4881237;29;20062;-77
2021/03/03 09:40:37;;;;;;;32.63;20.15;;;4.60;99.90;;;;;;4914771;29;20048;-77
2021/03/03 09:43:15;;;;;;;33.80;21.65;;;4.70;99.90;;;;;;4896907;29;20040;-78
2021/03/03 09:45:46;;;;;;;36.72;21.15;;;4.80;99.90;;;;;;4896824;29;20051;-78
2021/03/03 09:48:26;;;;;;;29.08;18.27;;;4.90;99.90;;;;;;4908481;29;20416;-77
2021/03/03 09:50:58;;;;;;;28.60;15.98;;;5.00;99.90;;;;;;4916412;29;20054;-78
2021/03/03 09:53:29;;;;;;;31.58;17.33;;;5.10;99.90;;;;;;4930721;29;20043;-77
2021/03/03 09:56:05;;;;;;;25.58;16.90;;;5.20;99.90;;;;;;4914991;29;20411;-78
2021/03/03 09:58:36;;;;;;;26.25;16.65;;;5.30;99.90;;;;;;4914971;29;20713;-77
2021/03/03 10:01:10;;;;;;;28.60;17.63;;;5.30;99.90;;;;;;4915169;29;20570;-78
2021/03/03 10:03:36;;;;;;;30.75;18.17;;;5.40;99.90;;;;;;4915494;29;20384;-77
2021/03/03 10:06:02;;;;;;;28.02;17.73;;;5.50;99.90;;;;;;4915354;29;20044;-78
2021/03/03 10:08:29;;;;;;;28.35;16.65;;;5.60;99.90;;;;;;4933714;29;20047;-77
2021/03/03 10:11:00;;;;;;;26.75;16.20;;;5.80;99.90;;;;;;4919140;29;20072;-78
2021/03/03 10:13:39;;;;;;;22.75;13.60;;;5.80;99.90;;;;;;4918736;29;20054;-77
2021/03/03 10:16:15;;;;;;;21.15;14.05;;;5.90;99.90;;;;;;4918570;29;20668;-78
2021/03/03 10:19:07;;;;;;;49.45;31.65;;;6.00;99.90;;;;;;4915126;29;20260;-78
2021/03/03 10:21:44;;;;;;;35.35;21.45;;;6.00;99.90;;;;;;4885231;29;20407;-78
2021/03/03 10:24:20;;;;;;;35.47;19.48;;;6.20;99.90;;;;;;4899496;29;20040;-77
2021/03/03 10:26:52;;;;;;;33.50;17.90;;;6.40;99.90;;;;;;4899727;29;20040;-78
2021/03/03 10:29:39;;;;;;;33.80;17.42;;;6.50;99.90;;;;;;4899283;29;20048;-77
2021/03/03 10:32:14;;;;;;;28.65;17.30;;;6.60;99.90;;;;;;4884669;29;20040;-77
2021/03/03 10:34:45;;;;;;;30.40;17.17;;;6.70;99.90;;;;;;4884737;29;20047;-78
2021/03/03 10:37:26;;;;;;;25.35;14.95;;;6.90;99.90;;;;;;4884579;29;20048;-77
2021/03/03 10:40:09;;;;;;;26.27;16.42;;;7.00;99.90;;;;;;4882771;29;20052;-78
2021/03/03 10:42:40;;;;;;;36.08;20.00;;;7.10;99.90;;;;;;4898863;29;20419;-78
2021/03/03 10:45:20;;;;;;;28.63;16.85;;;7.20;99.90;;;;;;4899112;29;20086;-78
2021/03/03 10:47:51;;;;;;;31.35;17.40;;;7.30;99.90;;;;;;4898708;29;20048;-78
2021/03/03 10:50:20;;;;;;;23.83;13.90;;;7.40;99.90;;;;;;4917340;29;20407;-78
2021/03/03 10:52:55;;;;;;;22.83;15.15;;;7.50;99.90;;;;;;4903074;29;20154;-78
2021/03/03 10:55:33;;;;;;;25.00;14.95;;;7.60;99.90;;;;;;4902998;29;20043;-77
2021/03/03 10:58:09;;;;;;;21.48;15.52;;;7.70;99.90;;;;;;4918383;29;20067;-77
2021/03/03 11:01:03;;;;;;;24.85;14.80;;;7.80;99.90;;;;;;4903038;29;20051;-77
2021/03/03 11:03:52;;;;;;;36.97;18.13;;;7.90;99.90;;;;;;4918620;29;20059;-78
2021/03/03 11:06:32;;;;;;;30.67;17.80;;;8.00;99.90;;;;;;4917792;29;20054;-78
2021/03/03 11:09:10;;;;;;;23.60;14.65;;;8.10;99.90;;;;;;4917465;29;20047;-77
2021/03/03 11:11:55;;;;;;;22.55;14.20;;;8.20;99.90;;;;;;4918152;29;20039;-78
2021/03/03 11:14:27;;;;;;;21.38;13.40;;;8.20;99.90;;;;;;4917727;29;20513;-78
2021/03/03 11:17:00;;;;;;;26.08;12.50;;;8.30;99.90;;;;;;4902446;29;20119;-77
2021/03/03 11:19:32;;;;;;;21.63;12.48;;;8.40;99.90;;;;;;4916103;29;20047;-77
2021/03/03 11:22:03;;;;;;;21.20;12.90;;;8.50;99.90;;;;;;4933580;29;20090;-78
2021/03/03 11:24:34;;;;;;;20.25;11.43;;;8.50;99.90;;;;;;4933313;29;20058;-78
2021/03/03 11:27:06;;;;;;;19.63;11.23;;;8.60;99.90;;;;;;4933385;29;20059;-78
2021/03/03 11:29:32;;;;;;;18.75;11.05;;;8.70;99.90;;;;;;4932862;29;20150;-77
2021/03/03 11:32:03;;;;;;;14.63;9.45;;;8.80;99.90;;;;;;4917306;29;20043;-77
2021/03/03 11:34:34;;;;;;;12.88;8.45;;;8.90;99.90;;;;;;4917216;29;20058;-77
2021/03/03 11:37:01;;;;;;;13.52;8.65;;;9.10;99.50;;;;;;4933324;29;20106;-77
2021/03/03 11:39:27;;;;;;;16.25;9.30;;;9.20;98.10;;;;;;4916738;29;20131;-78
2021/03/03 11:41:59;;;;;;;15.80;9.25;;;9.30;95.70;;;;;;4933486;29;20500;-78
2021/03/03 11:44:30;;;;;;;12.15;8.40;;;9.30;93.80;;;;;;4933087;29;20396;-78
2021/03/03 11:47:02;;;;;;;17.10;9.30;;;9.40;93.30;;;;;;4917287;29;20139;-77
2021/03/03 11:49:33;;;;;;;16.23;8.60;;;9.50;94.50;;;;;;4904300;29;20048;-78
2021/03/03 11:52:05;;;;;;;14.32;8.75;;;9.60;94.50;;;;;;4898375;29;20139;-78
2021/03/03 11:54:36;;;;;;;16.92;9.05;;;9.70;92.80;;;;;;4898176;29;20049;-78
2021/03/03 11:57:07;;;;;;;13.45;8.52;;;9.70;93.70;;;;;;4899208;29;20529;-78
2021/03/03 11:59:39;;;;;;;14.68;9.48;;;9.80;91.90;;;;;;4882811;29;20052;-78
2021/03/03 12:02:10;;;;;;;12.50;8.55;;;9.80;92.20;;;;;;4898984;29;20119;-78
2021/03/03 12:04:41;;;;;;;17.42;10.43;;;9.90;92.30;;;;;;4898009;29;20044;-77
2021/03/03 12:07:08;;;;;;;15.48;8.68;;;9.90;91.70;;;;;;4898018;29;20182;-78
2021/03/03 12:09:39;;;;;;;14.50;8.85;;;10.00;90.70;;;;;;4914578;29;20050;-78
2021/03/03 12:12:11;;;;;;;13.82;8.85;;;10.10;89.60;;;;;;4897770;29;20095;-77
2021/03/03 12:14:43;;;;;;;14.57;9.32;;;10.20;91.40;;;;;;4883068;29;20044;-78
2021/03/03 12:17:14;;;;;;;15.40;8.82;;;10.20;88.90;;;;;;4897935;29;20060;-78
2021/03/03 12:19:45;;;;;;;15.93;9.43;;;10.30;89.50;;;;;;4897642;29;20052;-78
2021/03/03 12:22:17;;;;;;;15.32;9.40;;;10.30;90.00;;;;;;4914674;29;20040;-78
2021/03/03 12:24:43;;;;;;;16.33;9.57;;;10.30;88.00;;;;;;4897565;29;20147;-78
2021/03/03 12:27:14;;;;;;;16.00;9.95;;;10.40;86.10;;;;;;4897670;29;20076;-78
2021/03/03 12:29:41;;;;;;;17.45;9.88;;;10.40;88.10;;;;;;4896945;29;20500;-78
2021/03/03 12:32:07;;;;;;;17.85;10.05;;;10.40;88.20;;;;;;4897625;29;20048;-78
2021/03/03 12:34:38;;;;;;;13.57;8.80;;;10.40;89.00;;;;;;4882821;29;20492;-78
2021/03/03 12:37:10;;;;;;;16.33;9.65;;;10.40;86.10;;;;;;4882601;29;20142;-78
2021/03/03 12:39:41;;;;;;;16.15;10.73;;;10.40;86.20;;;;;;4882120;29;20059;-78
2021/03/03 12:42:08;;;;;;;17.38;10.10;;;10.50;86.50;;;;;;4897226;29;20052;-77
2021/03/03 12:44:39;;;;;;;17.45;11.80;;;10.50;88.00;;;;;;4897259;29;20048;-77
2021/03/03 12:47:11;;;;;;;17.13;10.98;;;10.50;87.20;;;;;;4882405;29;20079;-78
2021/03/03 12:49:37;;;;;;;17.60;11.05;;;10.50;85.00;;;;;;4909503;29;20100;-78
2021/03/03 12:52:04;;;;;;;20.17;12.55;;;10.50;83.10;;;;;;4932204;29;20542;-78
2021/03/03 12:54:35;;;;;;;20.00;11.43;;;10.50;81.30;;;;;;4933447;29;20195;-78
2021/03/03 12:57:07;;;;;;;18.65;11.75;;;10.50;83.90;;;;;;4898009;29;20048;-78
2021/03/03 12:59:38;;;;;;;22.42;12.25;;;10.60;84.30;;;;;;4897104;29;20054;-78
2021/03/03 13:02:09;;;;;;;17.77;10.85;;;10.60;82.40;;;;;;4897355;29;20052;-78